sensor_id;sensor_type;location;lat;lon;timestamp;P1;durP1;ratioP1;P2;durP2;ratioP2
34892;SDS011;21106;52.240;20.902;2022-08-19T00:04:38;14.33;;;7.80;;
34892;SDS011;21106;52.240;20.902;2022-08-19T00:09:45;13.72;;;7.40;;
34892;SDS011;21106;52.240;20.902;2022-08-19T00:14:50;14.47;;;7.55;;
34892;SDS011;21106;52.240;20.902;2022-08-19T00:19:58;14.55;;;8.03;;
34892;SDS011;21106;52.240;20.902;2022-08-19T00:25:04;12.70;;;7.12;;
34892;SDS011;21106;52.240;20.902;2022-08-19T00:30:10;15.28;;;7.62;;
34892;SDS011;21106;52.240;20.902;2022-08-19T00:35:16;18.35;;;8.70;;
34892;SDS011;21106;52.240;20.902;2022-08-19T00:40:22;15.00;;;7.67;;
34892;SDS011;21106;52.240;20.902;2022-08-19T00:45:28;16.02;;;7.55;;
34892;SDS011;21106;52.240;20.902;2022-08-19T00:50:36;13.98;;;8.20;;
34892;SDS011;21106;52.240;20.902;2022-08-19T00:55:46;14.53;;;8.05;;
34892;SDS011;21106;52.240;20.902;2022-08-19T01:00:52;10.40;;;7.90;;
34892;SDS011;21106;52.240;20.902;2022-08-19T01:05:58;14.15;;;7.75;;
34892;SDS011;21106;52.240;20.902;2022-08-19T01:11:03;15.55;;;7.55;;
34892;SDS011;21106;52.240;20.902;2022-08-19T01:55:04;16.60;;;9.20;;
34892;SDS011;21106;52.240;20.902;2022-08-19T02:16:58;15.43;;;9.75;;
34892;SDS011;21106;52.240;20.902;2022-08-19T02:22:16;13.98;;;8.43;;
34892;SDS011;21106;52.240;20.902;2022-08-19T02:27:22;16.10;;;9.33;;
34892;SDS011;21106;52.240;20.902;2022-08-19T02:59:50;18.92;;;9.85;;
34892;SDS011;21106;52.240;20.902;2022-08-19T03:04:59;18.70;;;9.33;;
34892;SDS011;21106;52.240;20.902;2022-08-19T03:21:22;16.85;;;10.40;;
34892;SDS011;21106;52.240;20.902;2022-08-19T03:26:25;17.80;;;9.25;;
34892;SDS011;21106;52.240;20.902;2022-08-19T03:31:31;19.15;;;9.15;;
34892;SDS011;21106;52.240;20.902;2022-08-19T03:36:37;15.38;;;9.58;;
34892;SDS011;21106;52.240;20.902;2022-08-19T03:53:17;20.77;;;9.85;;
34892;SDS011;21106;52.240;20.902;2022-08-19T03:58:23;15.13;;;9.48;;
34892;SDS011;21106;52.240;20.902;2022-08-19T04:03:28;17.37;;;9.03;;
34892;SDS011;21106;52.240;20.902;2022-08-19T04:08:34;18.52;;;9.53;;
34892;SDS011;21106;52.240;20.902;2022-08-19T04:13:40;24.60;;;9.88;;
34892;SDS011;21106;52.240;20.902;2022-08-19T04:19:13;15.80;;;10.85;;
34892;SDS011;21106;52.240;20.902;2022-08-19T04:24:26;20.95;;;9.95;;
34892;SDS011;21106;52.240;20.902;2022-08-19T04:34:54;14.95;;;9.20;;
34892;SDS011;21106;52.240;20.902;2022-08-19T04:40:02;16.93;;;10.00;;
34892;SDS011;21106;52.240;20.902;2022-08-19T04:45:26;16.40;;;9.03;;
34892;SDS011;21106;52.240;20.902;2022-08-19T04:50:32;21.40;;;10.03;;
34892;SDS011;21106;52.240;20.902;2022-08-19T04:55:40;15.60;;;9.50;;
34892;SDS011;21106;52.240;20.902;2022-08-19T05:00:46;24.45;;;9.38;;
34892;SDS011;21106;52.240;20.902;2022-08-19T05:05:52;17.55;;;10.05;;
34892;SDS011;21106;52.240;20.902;2022-08-19T05:10:58;13.65;;;9.60;;
34892;SDS011;21106;52.240;20.902;2022-08-19T05:16:05;15.38;;;8.38;;
34892;SDS011;21106;52.240;20.902;2022-08-19T05:21:12;17.87;;;9.45;;
34892;SDS011;21106;52.240;20.902;2022-08-19T05:26:36;18.42;;;8.55;;
34892;SDS011;21106;52.240;20.902;2022-08-19T05:31:42;17.42;;;9.10;;
34892;SDS011;21106;52.240;20.902;2022-08-19T05:36:49;16.95;;;9.05;;
34892;SDS011;21106;52.240;20.902;2022-08-19T05:41:56;15.72;;;9.40;;
34892;SDS011;21106;52.240;20.902;2022-08-19T05:47:03;11.40;;;8.85;;
34892;SDS011;21106;52.240;20.902;2022-08-19T05:52:10;18.27;;;9.00;;
34892;SDS011;21106;52.240;20.902;2022-08-19T05:57:16;17.65;;;8.28;;
34892;SDS011;21106;52.240;20.902;2022-08-19T06:02:22;19.48;;;8.00;;
34892;SDS011;21106;52.240;20.902;2022-08-19T06:07:28;17.10;;;8.25;;
34892;SDS011;21106;52.240;20.902;2022-08-19T06:12:34;13.70;;;7.67;;
34892;SDS011;21106;52.240;20.902;2022-08-19T06:17:41;12.90;;;7.62;;
34892;SDS011;21106;52.240;20.902;2022-08-19T06:22:47;19.42;;;7.17;;
34892;SDS011;21106;52.240;20.902;2022-08-19T06:27:55;15.23;;;7.95;;
34892;SDS011;21106;52.240;20.902;2022-08-19T06:33:00;12.98;;;7.40;;
34892;SDS011;21106;52.240;20.902;2022-08-19T06:38:06;17.42;;;7.25;;
34892;SDS011;21106;52.240;20.902;2022-08-19T06:43:11;13.40;;;6.87;;
34892;SDS011;21106;52.240;20.902;2022-08-19T06:48:17;15.75;;;7.22;;
34892;SDS011;21106;52.240;20.902;2022-08-19T06:53:23;20.88;;;8.05;;
34892;SDS011;21106;52.240;20.902;2022-08-19T06:58:29;12.13;;;7.53;;
34892;SDS011;21106;52.240;20.902;2022-08-19T07:03:37;13.18;;;7.67;;
34892;SDS011;21106;52.240;20.902;2022-08-19T07:08:44;12.37;;;7.53;;
34892;SDS011;21106;52.240;20.902;2022-08-19T07:13:51;18.35;;;8.55;;
34892;SDS011;21106;52.240;20.902;2022-08-19T07:18:58;16.50;;;7.60;;
34892;SDS011;21106;52.240;20.902;2022-08-19T07:24:04;16.12;;;7.78;;
34892;SDS011;21106;52.240;20.902;2022-08-19T07:29:11;16.90;;;8.08;;
34892;SDS011;21106;52.240;20.902;2022-08-19T07:34:17;15.85;;;7.15;;
34892;SDS011;21106;52.240;20.902;2022-08-19T07:39:25;9.73;;;7.62;;
34892;SDS011;21106;52.240;20.902;2022-08-19T07:44:30;11.67;;;7.33;;
34892;SDS011;21106;52.240;20.902;2022-08-19T07:49:35;14.23;;;6.92;;
34892;SDS011;21106;52.240;20.902;2022-08-19T07:54:41;14.18;;;7.05;;
34892;SDS011;21106;52.240;20.902;2022-08-19T07:59:47;17.00;;;7.83;;
34892;SDS011;21106;52.240;20.902;2022-08-19T08:04:52;15.98;;;6.40;;
34892;SDS011;21106;52.240;20.902;2022-08-19T08:10:16;13.05;;;6.35;;
34892;SDS011;21106;52.240;20.902;2022-08-19T08:15:21;15.00;;;6.90;;
34892;SDS011;21106;52.240;20.902;2022-08-19T08:20:29;15.97;;;7.07;;
34892;SDS011;21106;52.240;20.902;2022-08-19T08:25:35;15.28;;;6.60;;
34892;SDS011;21106;52.240;20.902;2022-08-19T08:30:41;11.43;;;7.17;;
34892;SDS011;21106;52.240;20.902;2022-08-19T08:35:48;16.80;;;7.73;;
34892;SDS011;21106;52.240;20.902;2022-08-19T08:40:56;16.50;;;7.53;;
34892;SDS011;21106;52.240;20.902;2022-08-19T08:46:06;11.85;;;7.33;;
34892;SDS011;21106;52.240;20.902;2022-08-19T08:51:14;11.90;;;6.97;;
34892;SDS011;21106;52.240;20.902;2022-08-19T08:56:19;17.00;;;8.17;;
34892;SDS011;21106;52.240;20.902;2022-08-19T09:01:25;13.93;;;7.05;;
34892;SDS011;21106;52.240;20.902;2022-08-19T09:06:47;14.38;;;8.25;;
34892;SDS011;21106;52.240;20.902;2022-08-19T09:17:18;16.25;;;7.05;;
34892;SDS011;21106;52.240;20.902;2022-08-19T09:22:24;13.40;;;6.80;;
34892;SDS011;21106;52.240;20.902;2022-08-19T09:27:31;19.95;;;7.20;;
34892;SDS011;21106;52.240;20.902;2022-08-19T09:32:37;19.12;;;6.42;;
34892;SDS011;21106;52.240;20.902;2022-08-19T09:37:45;17.87;;;6.85;;
34892;SDS011;21106;52.240;20.902;2022-08-19T09:42:50;17.20;;;7.08;;
34892;SDS011;21106;52.240;20.902;2022-08-19T09:47:56;13.32;;;5.53;;
34892;SDS011;21106;52.240;20.902;2022-08-19T09:53:02;10.78;;;6.12;;
34892;SDS011;21106;52.240;20.902;2022-08-19T09:58:07;10.70;;;5.83;;
34892;SDS011;21106;52.240;20.902;2022-08-19T10:03:13;16.10;;;6.10;;
34892;SDS011;21106;52.240;20.902;2022-08-19T10:08:20;13.45;;;6.45;;
34892;SDS011;21106;52.240;20.902;2022-08-19T10:13:27;13.45;;;6.53;;
34892;SDS011;21106;52.240;20.902;2022-08-19T10:18:33;11.08;;;6.33;;
34892;SDS011;21106;52.240;20.902;2022-08-19T10:23:40;18.60;;;6.70;;
34892;SDS011;21106;52.240;20.902;2022-08-19T10:28:48;9.13;;;6.15;;
34892;SDS011;21106;52.240;20.902;2022-08-19T10:33:54;9.73;;;6.40;;
34892;SDS011;21106;52.240;20.902;2022-08-19T10:39:03;14.58;;;6.35;;
34892;SDS011;21106;52.240;20.902;2022-08-19T10:44:09;10.90;;;6.05;;
34892;SDS011;21106;52.240;20.902;2022-08-19T10:49:15;10.38;;;6.35;;
34892;SDS011;21106;52.240;20.902;2022-08-19T10:54:21;9.75;;;5.78;;
34892;SDS011;21106;52.240;20.902;2022-08-19T10:59:27;11.20;;;5.70;;
34892;SDS011;21106;52.240;20.902;2022-08-19T11:04:33;8.90;;;6.05;;
34892;SDS011;21106;52.240;20.902;2022-08-19T11:09:40;15.63;;;6.20;;
34892;SDS011;21106;52.240;20.902;2022-08-19T11:14:46;13.15;;;6.45;;
34892;SDS011;21106;52.240;20.902;2022-08-19T11:19:52;10.90;;;6.28;;
34892;SDS011;21106;52.240;20.902;2022-08-19T11:24:58;11.53;;;6.55;;
34892;SDS011;21106;52.240;20.902;2022-08-19T11:30:04;12.68;;;6.10;;
34892;SDS011;21106;52.240;20.902;2022-08-19T11:35:10;13.85;;;6.70;;
34892;SDS011;21106;52.240;20.902;2022-08-19T11:40:16;10.18;;;6.40;;
34892;SDS011;21106;52.240;20.902;2022-08-19T11:45:27;12.00;;;6.53;;
34892;SDS011;21106;52.240;20.902;2022-08-19T11:50:29;23.30;;;6.97;;
34892;SDS011;21106;52.240;20.902;2022-08-19T11:55:38;14.65;;;6.50;;
34892;SDS011;21106;52.240;20.902;2022-08-19T12:00:45;14.13;;;6.47;;
34892;SDS011;21106;52.240;20.902;2022-08-19T12:05:50;16.55;;;7.00;;
34892;SDS011;21106;52.240;20.902;2022-08-19T12:10:56;9.80;;;6.00;;
34892;SDS011;21106;52.240;20.902;2022-08-19T12:16:12;14.80;;;5.58;;
34892;SDS011;21106;52.240;20.902;2022-08-19T12:21:19;13.93;;;5.97;;
34892;SDS011;21106;52.240;20.902;2022-08-19T12:26:26;17.07;;;6.55;;
34892;SDS011;21106;52.240;20.902;2022-08-19T12:31:32;9.60;;;5.90;;
34892;SDS011;21106;52.240;20.902;2022-08-19T12:36:38;17.57;;;6.80;;
34892;SDS011;21106;52.240;20.902;2022-08-19T12:41:44;15.38;;;5.97;;
34892;SDS011;21106;52.240;20.902;2022-08-19T12:46:50;12.47;;;6.00;;
34892;SDS011;21106;52.240;20.902;2022-08-19T12:51:55;8.33;;;5.83;;
34892;SDS011;21106;52.240;20.902;2022-08-19T12:57:05;11.60;;;5.80;;
34892;SDS011;21106;52.240;20.902;2022-08-19T13:02:11;10.75;;;5.67;;
34892;SDS011;21106;52.240;20.902;2022-08-19T13:07:16;13.50;;;6.17;;
34892;SDS011;21106;52.240;20.902;2022-08-19T13:12:21;10.10;;;6.12;;
34892;SDS011;21106;52.240;20.902;2022-08-19T13:17:29;12.37;;;6.45;;
34892;SDS011;21106;52.240;20.902;2022-08-19T13:22:34;10.72;;;5.78;;
34892;SDS011;21106;52.240;20.902;2022-08-19T13:27:43;10.03;;;5.40;;
34892;SDS011;21106;52.240;20.902;2022-08-19T13:32:48;14.85;;;5.58;;
34892;SDS011;21106;52.240;20.902;2022-08-19T13:38:12;8.95;;;5.17;;
34892;SDS011;21106;52.240;20.902;2022-08-19T13:43:19;9.73;;;5.72;;
34892;SDS011;21106;52.240;20.902;2022-08-19T13:48:26;12.25;;;5.40;;
34892;SDS011;21106;52.240;20.902;2022-08-19T13:53:31;13.45;;;5.62;;
34892;SDS011;21106;52.240;20.902;2022-08-19T13:58:37;19.67;;;5.95;;
34892;SDS011;21106;52.240;20.902;2022-08-19T14:03:43;12.35;;;5.00;;
34892;SDS011;21106;52.240;20.902;2022-08-19T14:08:49;11.90;;;5.35;;
34892;SDS011;21106;52.240;20.902;2022-08-19T14:13:55;15.43;;;5.60;;
34892;SDS011;21106;52.240;20.902;2022-08-19T14:19:00;10.88;;;5.08;;
34892;SDS011;21106;52.240;20.902;2022-08-19T14:24:06;11.12;;;5.17;;
34892;SDS011;21106;52.240;20.902;2022-08-19T14:29:12;8.93;;;4.80;;
34892;SDS011;21106;52.240;20.902;2022-08-19T14:34:17;11.85;;;5.22;;
34892;SDS011;21106;52.240;20.902;2022-08-19T14:39:23;11.53;;;4.72;;
34892;SDS011;21106;52.240;20.902;2022-08-19T14:44:28;15.35;;;5.17;;
34892;SDS011;21106;52.240;20.902;2022-08-19T14:49:36;11.95;;;4.75;;
34892;SDS011;21106;52.240;20.902;2022-08-19T14:54:41;6.30;;;4.35;;
34892;SDS011;21106;52.240;20.902;2022-08-19T14:59:47;7.55;;;4.60;;
34892;SDS011;21106;52.240;20.902;2022-08-19T15:04:53;10.38;;;4.28;;
34892;SDS011;21106;52.240;20.902;2022-08-19T15:10:00;8.50;;;4.40;;
34892;SDS011;21106;52.240;20.902;2022-08-19T15:15:07;13.15;;;4.55;;
34892;SDS011;21106;52.240;20.902;2022-08-19T15:20:15;9.20;;;4.07;;
34892;SDS011;21106;52.240;20.902;2022-08-19T15:25:21;11.43;;;4.85;;
34892;SDS011;21106;52.240;20.902;2022-08-19T15:30:27;7.85;;;3.85;;
34892;SDS011;21106;52.240;20.902;2022-08-19T15:35:35;9.70;;;4.80;;
34892;SDS011;21106;52.240;20.902;2022-08-19T15:40:41;11.05;;;4.10;;
34892;SDS011;21106;52.240;20.902;2022-08-19T15:45:46;14.38;;;4.37;;
34892;SDS011;21106;52.240;20.902;2022-08-19T15:50:52;10.30;;;4.40;;
34892;SDS011;21106;52.240;20.902;2022-08-19T15:55:58;9.55;;;4.25;;
34892;SDS011;21106;52.240;20.902;2022-08-19T16:01:05;14.43;;;4.22;;
34892;SDS011;21106;52.240;20.902;2022-08-19T16:06:29;14.00;;;4.62;;
34892;SDS011;21106;52.240;20.902;2022-08-19T16:11:35;10.30;;;4.67;;
34892;SDS011;21106;52.240;20.902;2022-08-19T16:16:41;13.13;;;4.72;;
34892;SDS011;21106;52.240;20.902;2022-08-19T16:21:49;10.70;;;4.47;;
34892;SDS011;21106;52.240;20.902;2022-08-19T16:32:02;10.43;;;4.37;;
34892;SDS011;21106;52.240;20.902;2022-08-19T16:37:08;11.10;;;4.15;;
34892;SDS011;21106;52.240;20.902;2022-08-19T16:42:14;10.32;;;4.10;;
34892;SDS011;21106;52.240;20.902;2022-08-19T16:47:19;8.03;;;4.28;;
34892;SDS011;21106;52.240;20.902;2022-08-19T16:52:25;12.58;;;4.42;;
34892;SDS011;21106;52.240;20.902;2022-08-19T16:57:31;11.15;;;4.47;;
34892;SDS011;21106;52.240;20.902;2022-08-19T17:02:37;10.03;;;4.15;;
34892;SDS011;21106;52.240;20.902;2022-08-19T17:07:43;9.83;;;3.85;;
34892;SDS011;21106;52.240;20.902;2022-08-19T17:12:49;13.28;;;4.35;;
34892;SDS011;21106;52.240;20.902;2022-08-19T17:17:58;9.60;;;3.67;;
34892;SDS011;21106;52.240;20.902;2022-08-19T17:23:04;9.75;;;3.98;;
34892;SDS011;21106;52.240;20.902;2022-08-19T17:28:13;8.45;;;3.85;;
34892;SDS011;21106;52.240;20.902;2022-08-19T17:33:20;6.37;;;3.80;;
34892;SDS011;21106;52.240;20.902;2022-08-19T17:38:26;10.32;;;4.10;;
34892;SDS011;21106;52.240;20.902;2022-08-19T17:43:34;9.50;;;4.50;;
34892;SDS011;21106;52.240;20.902;2022-08-19T17:48:39;8.10;;;4.15;;
34892;SDS011;21106;52.240;20.902;2022-08-19T17:53:45;9.85;;;3.55;;
34892;SDS011;21106;52.240;20.902;2022-08-19T17:58:50;14.68;;;4.55;;
34892;SDS011;21106;52.240;20.902;2022-08-19T18:03:56;11.50;;;4.37;;
34892;SDS011;21106;52.240;20.902;2022-08-19T18:09:03;8.98;;;4.00;;
34892;SDS011;21106;52.240;20.902;2022-08-19T18:14:09;8.73;;;4.10;;
34892;SDS011;21106;52.240;20.902;2022-08-19T18:19:14;7.10;;;3.87;;
34892;SDS011;21106;52.240;20.902;2022-08-19T18:24:20;12.55;;;4.25;;
34892;SDS011;21106;52.240;20.902;2022-08-19T18:29:25;10.93;;;3.92;;
34892;SDS011;21106;52.240;20.902;2022-08-19T18:34:31;8.05;;;3.80;;
34892;SDS011;21106;52.240;20.902;2022-08-19T18:45:03;9.38;;;4.17;;
34892;SDS011;21106;52.240;20.902;2022-08-19T18:50:27;11.15;;;4.50;;
34892;SDS011;21106;52.240;20.902;2022-08-19T18:55:33;11.65;;;4.12;;
34892;SDS011;21106;52.240;20.902;2022-08-19T19:00:40;9.93;;;4.50;;
34892;SDS011;21106;52.240;20.902;2022-08-19T19:05:48;6.70;;;4.10;;
34892;SDS011;21106;52.240;20.902;2022-08-19T19:10:58;7.87;;;4.40;;
34892;SDS011;21106;52.240;20.902;2022-08-19T19:16:08;10.70;;;4.15;;
34892;SDS011;21106;52.240;20.902;2022-08-19T19:21:24;10.90;;;4.40;;
34892;SDS011;21106;52.240;20.902;2022-08-19T19:26:31;12.03;;;4.83;;
34892;SDS011;21106;52.240;20.902;2022-08-19T19:31:45;8.73;;;4.20;;
34892;SDS011;21106;52.240;20.902;2022-08-19T19:36:59;12.23;;;4.45;;
34892;SDS011;21106;52.240;20.902;2022-08-19T19:42:07;7.72;;;4.28;;
34892;SDS011;21106;52.240;20.902;2022-08-19T19:47:14;6.83;;;4.25;;
34892;SDS011;21106;52.240;20.902;2022-08-19T19:52:20;10.70;;;3.98;;
34892;SDS011;21106;52.240;20.902;2022-08-19T19:57:26;11.53;;;6.60;;
34892;SDS011;21106;52.240;20.902;2022-08-19T20:02:43;7.33;;;4.15;;
34892;SDS011;21106;52.240;20.902;2022-08-19T20:24:15;10.98;;;4.15;;
34892;SDS011;21106;52.240;20.902;2022-08-19T20:29:21;16.07;;;4.37;;
34892;SDS011;21106;52.240;20.902;2022-08-19T20:34:27;11.68;;;4.65;;
34892;SDS011;21106;52.240;20.902;2022-08-19T21:01:27;12.03;;;4.23;;
34892;SDS011;21106;52.240;20.902;2022-08-19T23:30:38;9.30;;;3.72;;
34892;SDS011;21106;52.240;20.902;2022-08-19T23:35:43;10.57;;;3.77;;
34892;SDS011;21106;52.240;20.902;2022-08-19T23:40:49;12.47;;;4.00;;
34892;SDS011;21106;52.240;20.902;2022-08-19T23:45:57;11.28;;;3.60;;
34892;SDS011;21106;52.240;20.902;2022-08-19T23:51:06;13.65;;;4.45;;
34892;SDS011;21106;52.240;20.902;2022-08-19T23:56:12;15.35;;;3.92;;
